AEST,Max TemperatureF,Mean TemperatureF,Min TemperatureF,Max Dew PointF,MeanDew PointF,Min DewpointF,Max Humidity, Mean Humidity, Min Humidity, Max Sea Level PressureIn, Mean Sea Level PressureIn, Min Sea Level PressureIn, Max VisibilityMiles, Mean VisibilityMiles, Min VisibilityMiles, Max Wind SpeedMPH, Mean Wind SpeedMPH, Max Gust SpeedMPH,PrecipitationIn, CloudCover, Events, WindDirDegrees
2011-11-1,86,80,73,72,66,63,94,66,45,29.89,29.86,29.80,6,6,3,21,12,,0.00,2,Rain,152
2011-11-2,84,78,73,72,69,66,94,77,55,29.89,29.84,29.77,6,6,2,17,9,,0.00,4,Rain,160
2011-11-3,86,78,69,68,67,64,88,70,51,29.89,29.83,29.77,6,6,6,16,9,,0.00,2,,136
2011-11-4,84,76,68,68,66,63,94,70,51,29.92,29.86,29.80,6,6,6,15,8,,0.00,5,,137
2011-11-5,86,78,69,73,71,64,100,82,62,29.92,29.87,29.80,6,5,1,15,10,,0.00,4,Rain,134
2011-11-6,84,78,71,73,72,70,94,86,66,29.92,29.86,29.80,6,6,1,17,9,,0.00,5,Rain,163
2011-11-7,86,80,73,70,67,55,88,70,37,29.95,29.88,29.83,6,6,6,15,10,,0.00,3,,150
2011-11-8,86,80,73,72,68,63,88,72,45,29.95,29.91,29.86,6,6,2,20,9,,0.00,3,Rain,155
2011-11-9,86,80,73,70,67,61,88,68,43,29.98,29.92,29.86,6,6,6,17,9,,0.00,2,,147
2011-11-10,87,80,73,73,71,68,94,74,55,29.98,29.93,29.89,6,6,4,16,9,,0.00,3,Rain,146
2011-11-11,87,80,73,72,69,66,89,70,49,29.98,29.94,29.89,6,6,6,20,10,,0.00,1,,144
2011-11-12,86,80,73,72,67,63,83,69,51,29.98,29.92,29.86,6,6,2,18,10,,0.00,3,Rain,153
2011-11-13,86,80,73,72,68,63,94,70,51,29.92,29.89,29.83,6,6,2,18,10,,0.00,2,Rain,151
2011-11-14,87,78,69,70,67,64,88,67,46,29.95,29.90,29.86,6,6,6,17,10,,0.00,2,,147
2011-11-15,86,80,75,70,68,64,83,68,51,29.95,29.91,29.89,6,6,4,21,11,,0.00,2,Rain,146
2011-11-16,84,80,75,68,66,64,78,66,54,29.95,29.90,29.86,6,6,6,16,10,,0.00,4,Rain,159
2011-11-17,86,80,73,72,67,64,88,70,48,29.92,29.88,29.80,6,6,4,15,10,,0.00,3,Rain,152
2011-11-18,89,81,73,70,68,64,83,66,46,29.95,29.88,29.83,6,6,6,18,10,,0.00,3,Rain,139
2011-11-19,87,80,73,72,67,61,94,66,43,29.92,29.88,29.83,6,6,3,17,9,,0.00,4,Rain,154
2011-11-20,84,80,75,72,69,64,89,72,51,29.92,29.89,29.83,6,6,5,16,9,,0.00,5,Rain,160
2011-11-21,87,80,73,70,69,66,88,70,49,29.89,29.85,29.77,6,6,6,15,8,,0.00,2,Rain,142
2011-11-22,86,80,73,72,71,68,89,74,58,29.86,29.81,29.74,6,6,6,12,5,,0.00,2,,100
2011-11-23,87,80,73,75,72,70,94,82,62,29.92,29.85,29.77,6,6,2,10,5,,0.00,5,Rain,153
2011-11-24,84,80,77,79,75,73,100,87,79,29.92,29.87,29.83,6,5,1,13,6,,0.00,5,Rain,150
2011-11-25,87,81,75,77,75,73,100,81,66,29.92,29.87,29.80,6,6,2,14,6,,0.00,3,Rain,124
2011-11-26,87,82,77,77,73,70,100,79,58,29.89,29.84,29.77,6,6,2,15,8,,0.00,4,Rain,138
2011-11-27,87,80,73,72,69,66,94,70,49,29.89,29.83,29.80,6,6,6,16,7,,0.00,1,,142
2011-11-28,89,81,73,73,71,68,89,73,55,29.89,29.84,29.77,6,6,6,17,9,,0.00,2,,143
2011-11-29,89,83,77,75,72,70,89,70,55,29.89,29.83,29.77,6,6,6,16,10,,0.00,2,,147
2011-11-30,87,82,77,77,75,72,94,81,58,29.86,29.80,29.74,6,6,2,20,11,,0.00,4,Rain,159